首页
METAR-TAF:

METAR-TAF

机场 :

米登霍爾皇家空軍基地

Mildenhall, 英格兰

纬度: 52-22N, 经度: 000-29E, 海拔: 10米

当前天气观测

该预报发布于28分钟前的07:16 UTC
风速7节,风向北转东北
温度 17°C
湿度 100%
气压 1015 hPa
能见度10公里或以上
阴天层高于700英尺

METAR: EGUN 150716Z AUTO 02007KT 9999 OVC007 17/17 A2998 RMK AO2 SLP155 $

时间: 08:44 (07:44 UTC)

预报

该预报发布于1小时和21分钟前的06:23 UTC
预报有效从15日的 06点(UTC)到 16日的 10点(UTC)
风速9节,风向北转东北
能見度: 6000
阴天层高于900英尺
轻雾
短暂存在
从 15日的 06点(UTC)到 15日的 08点(UTC)
阴天层高于1000英尺
成为
从 15日的 07点(UTC)到 15日的 08点(UTC)
风速10节,风向北转东北,有时为15节阵风
能見度: 6000
阴天层高于500英尺
小阵雨, 轻雾
短暂存在
从 15日的 10点(UTC)到 15日的 16点(UTC)
阴天层高于1000英尺
成为
从 15日的 20点(UTC)到 15日的 21点(UTC)
风速9节,风向东北
能見度: 3200
阴天层高于200英尺
轻雾
成为
从 16日的 00点(UTC)到 16日的 01点(UTC)
风速6节,风向
能見度: 1600
阴天层高于300英尺
轻雾

TAF: EGUN 150623Z 1506/1610 02009KT 6000 BR OVC009 QNH2995INS TEMPO 1506/1508 OVC010 BECMG 1507/1508 03010G15KT 6000 -SHRA BR OVC005 QNH2994INS TEMPO 1510/1516 OVC010 BECMG 1520/1521 05009KT 3200 BR OVC002 QNH2992INS BECMG 1600/1601 10006KT 1600 BR OVC003 QNH2988INS TX22/1512Z TN17/1506Z

超过4000个机场的气象观测和天气预报(METAR&TAF报告)。

可查询的气象台以黄色和红色小点在地图上表示。

将鼠标移到小点上方,可查看气象台名称。

然后点击查看天气观测和预报。

如需切换地图:点击带黑十字的绿色按钮放大地图;点击带横线的绿色按钮缩小地图;或者点击绿色箭头查看邻近地区的地图。


METAR-TAF: